sensor_id;sensor_type;location;lat;lon;timestamp;temperature;humidity
17425;DHT22;8830;50.978;5.058;2023-02-01T00:00:01;6.40;99.90
17425;DHT22;8830;50.978;5.058;2023-02-01T00:02:29;7.10;99.90
17425;DHT22;8830;50.978;5.058;2023-02-01T00:04:57;6.40;99.90
17425;DHT22;8830;50.978;5.058;2023-02-01T00:07:24;6.30;99.90
17425;DHT22;8830;50.978;5.058;2023-02-01T00:09:51;6.30;99.90
17425;DHT22;8830;50.978;5.058;2023-02-01T00:12:18;6.30;99.90
17425;DHT22;8830;50.978;5.058;2023-02-01T00:14:46;6.20;99.90
17425;DHT22;8830;50.978;5.058;2023-02-01T00:17:17;6.20;99.90
17425;DHT22;8830;50.978;5.058;2023-02-01T00:19:44;5.90;99.90
17425;DHT22;8830;50.978;5.058;2023-02-01T00:22:11;6.40;99.90
17425;DHT22;8830;50.978;5.058;2023-02-01T00:27:05;6.50;99.90
17425;DHT22;8830;50.978;5.058;2023-02-01T00:29:32;6.50;99.90
17425;DHT22;8830;50.978;5.058;2023-02-01T00:32:01;6.50;99.90
17425;DHT22;8830;50.978;5.058;2023-02-01T00:34:31;6.60;99.90
17425;DHT22;8830;50.978;5.058;2023-02-01T00:36:58;6.60;99.90
17425;DHT22;8830;50.978;5.058;2023-02-01T00:39:26;6.60;99.90
17425;DHT22;8830;50.978;5.058;2023-02-01T00:41:54;6.60;99.90
17425;DHT22;8830;50.978;5.058;2023-02-01T00:44:22;6.60;99.90
17425;DHT22;8830;50.978;5.058;2023-02-01T00:46:50;6.70;99.90
17425;DHT22;8830;50.978;5.058;2023-02-01T00:49:17;6.70;99.90
17425;DHT22;8830;50.978;5.058;2023-02-01T00:51:45;6.70;99.90
17425;DHT22;8830;50.978;5.058;2023-02-01T00:54:12;7.60;99.90
17425;DHT22;8830;50.978;5.058;2023-02-01T00:56:41;6.80;99.90
17425;DHT22;8830;50.978;5.058;2023-02-01T00:59:11;6.90;99.90
17425;DHT22;8830;50.978;5.058;2023-02-01T01:01:38;6.90;99.90
17425;DHT22;8830;50.978;5.058;2023-02-01T01:04:05;6.90;99.90
17425;DHT22;8830;50.978;5.058;2023-02-01T01:06:34;6.90;99.90
17425;DHT22;8830;50.978;5.058;2023-02-01T01:09:06;6.90;99.90
17425;DHT22;8830;50.978;5.058;2023-02-01T01:11:36;7.00;99.90
17425;DHT22;8830;50.978;5.058;2023-02-01T01:14:04;7.10;99.90
17425;DHT22;8830;50.978;5.058;2023-02-01T01:16:32;7.00;99.90
17425;DHT22;8830;50.978;5.058;2023-02-01T01:18:59;7.00;99.90
17425;DHT22;8830;50.978;5.058;2023-02-01T01:21:27;7.00;99.90
17425;DHT22;8830;50.978;5.058;2023-02-01T01:23:54;7.10;99.90
17425;DHT22;8830;50.978;5.058;2023-02-01T01:26:24;7.00;99.90
17425;DHT22;8830;50.978;5.058;2023-02-01T01:28:55;7.00;99.90
17425;DHT22;8830;50.978;5.058;2023-02-01T01:31:23;7.00;99.90
17425;DHT22;8830;50.978;5.058;2023-02-01T01:33:52;7.00;99.90
17425;DHT22;8830;50.978;5.058;2023-02-01T01:36:21;7.30;99.90
17425;DHT22;8830;50.978;5.058;2023-02-01T01:38:49;7.00;99.90
17425;DHT22;8830;50.978;5.058;2023-02-01T01:41:19;6.90;99.90
17425;DHT22;8830;50.978;5.058;2023-02-01T01:43:55;6.90;99.90
17425;DHT22;8830;50.978;5.058;2023-02-01T01:46:26;7.10;99.90
17425;DHT22;8830;50.978;5.058;2023-02-01T01:48:59;6.90;99.90
17425;DHT22;8830;50.978;5.058;2023-02-01T01:51:29;6.90;99.90
17425;DHT22;8830;50.978;5.058;2023-02-01T01:54:02;6.80;99.90
17425;DHT22;8830;50.978;5.058;2023-02-01T01:56:32;6.80;99.90
17425;DHT22;8830;50.978;5.058;2023-02-01T01:59:02;6.80;99.90
17425;DHT22;8830;50.978;5.058;2023-02-01T02:01:31;6.80;99.90
17425;DHT22;8830;50.978;5.058;2023-02-01T02:03:59;6.80;99.90
17425;DHT22;8830;50.978;5.058;2023-02-01T02:06:39;6.80;99.90
17425;DHT22;8830;50.978;5.058;2023-02-01T02:09:10;6.90;99.90
17425;DHT22;8830;50.978;5.058;2023-02-01T02:11:38;6.90;99.90
17425;DHT22;8830;50.978;5.058;2023-02-01T02:14:09;6.90;99.90
17425;DHT22;8830;50.978;5.058;2023-02-01T02:16:47;6.90;99.90
17425;DHT22;8830;50.978;5.058;2023-02-01T02:22:48;7.00;99.90
17425;DHT22;8830;50.978;5.058;2023-02-01T02:25:41;7.00;99.90
17425;DHT22;8830;50.978;5.058;2023-02-01T02:28:28;7.00;99.90
17425;DHT22;8830;50.978;5.058;2023-02-01T02:31:15;7.00;99.90
17425;DHT22;8830;50.978;5.058;2023-02-01T02:33:59;7.00;99.90
17425;DHT22;8830;50.978;5.058;2023-02-01T02:36:43;7.00;99.90
17425;DHT22;8830;50.978;5.058;2023-02-01T02:39:21;7.00;99.90
17425;DHT22;8830;50.978;5.058;2023-02-01T02:41:54;6.90;99.90
17425;DHT22;8830;50.978;5.058;2023-02-01T02:44:46;7.70;99.90
17425;DHT22;8830;50.978;5.058;2023-02-01T02:47:35;6.70;99.90
17425;DHT22;8830;50.978;5.058;2023-02-01T02:50:18;6.60;99.90
17425;DHT22;8830;50.978;5.058;2023-02-01T02:53:12;6.50;99.90
17425;DHT22;8830;50.978;5.058;2023-02-01T02:55:58;6.50;99.90
17425;DHT22;8830;50.978;5.058;2023-02-01T02:58:46;6.50;99.90
17425;DHT22;8830;50.978;5.058;2023-02-01T03:01:32;6.50;99.90
17425;DHT22;8830;50.978;5.058;2023-02-01T03:04:17;6.40;99.90
17425;DHT22;8830;50.978;5.058;2023-02-01T03:06:48;6.30;99.90
17425;DHT22;8830;50.978;5.058;2023-02-01T03:09:20;6.30;99.90
17425;DHT22;8830;50.978;5.058;2023-02-01T03:11:50;6.20;99.90
17425;DHT22;8830;50.978;5.058;2023-02-01T03:14:44;6.20;99.90
17425;DHT22;8830;50.978;5.058;2023-02-01T03:17:18;6.10;99.90
17425;DHT22;8830;50.978;5.058;2023-02-01T03:19:48;6.20;99.90
17425;DHT22;8830;50.978;5.058;2023-02-01T03:22:22;6.20;99.90
17425;DHT22;8830;50.978;5.058;2023-02-01T03:24:52;6.10;99.90
17425;DHT22;8830;50.978;5.058;2023-02-01T03:27:22;6.10;99.90
17425;DHT22;8830;50.978;5.058;2023-02-01T03:29:56;7.30;99.90
17425;DHT22;8830;50.978;5.058;2023-02-01T03:32:28;6.10;99.90
17425;DHT22;8830;50.978;5.058;2023-02-01T03:35:15;6.10;99.90
17425;DHT22;8830;50.978;5.058;2023-02-01T03:37:45;6.10;99.90
17425;DHT22;8830;50.978;5.058;2023-02-01T03:40:13;6.20;99.90
17425;DHT22;8830;50.978;5.058;2023-02-01T03:42:46;6.20;99.90
17425;DHT22;8830;50.978;5.058;2023-02-01T03:45:18;6.20;99.90
17425;DHT22;8830;50.978;5.058;2023-02-01T03:47:50;6.40;99.90
17425;DHT22;8830;50.978;5.058;2023-02-01T03:50:22;6.10;99.90
17425;DHT22;8830;50.978;5.058;2023-02-01T03:52:54;6.20;99.90
17425;DHT22;8830;50.978;5.058;2023-02-01T03:55:23;7.90;99.90
17425;DHT22;8830;50.978;5.058;2023-02-01T03:57:57;6.00;99.90
17425;DHT22;8830;50.978;5.058;2023-02-01T04:00:26;6.00;99.90
17425;DHT22;8830;50.978;5.058;2023-02-01T04:02:54;6.00;99.90
17425;DHT22;8830;50.978;5.058;2023-02-01T04:05:24;5.90;99.90
17425;DHT22;8830;50.978;5.058;2023-02-01T04:07:53;5.90;99.90
17425;DHT22;8830;50.978;5.058;2023-02-01T04:10:20;5.90;99.90
17425;DHT22;8830;50.978;5.058;2023-02-01T04:12:47;5.80;99.90
17425;DHT22;8830;50.978;5.058;2023-02-01T04:15:14;5.90;99.90
17425;DHT22;8830;50.978;5.058;2023-02-01T04:17:41;5.90;99.90
17425;DHT22;8830;50.978;5.058;2023-02-01T04:20:10;7.60;99.90
17425;DHT22;8830;50.978;5.058;2023-02-01T04:22:37;5.80;99.90
17425;DHT22;8830;50.978;5.058;2023-02-01T04:25:07;5.80;99.90
17425;DHT22;8830;50.978;5.058;2023-02-01T04:27:34;5.80;99.90
17425;DHT22;8830;50.978;5.058;2023-02-01T04:30:03;5.80;99.90
17425;DHT22;8830;50.978;5.058;2023-02-01T04:32:30;6.90;99.90
17425;DHT22;8830;50.978;5.058;2023-02-01T04:34:57;5.80;99.90
17425;DHT22;8830;50.978;5.058;2023-02-01T04:37:24;5.80;99.90
17425;DHT22;8830;50.978;5.058;2023-02-01T04:39:50;5.80;99.90
17425;DHT22;8830;50.978;5.058;2023-02-01T04:42:19;5.90;99.90
17425;DHT22;8830;50.978;5.058;2023-02-01T04:44:46;5.80;99.90
17425;DHT22;8830;50.978;5.058;2023-02-01T04:47:13;5.80;99.90
17425;DHT22;8830;50.978;5.058;2023-02-01T04:49:41;5.80;99.90
17425;DHT22;8830;50.978;5.058;2023-02-01T04:52:08;6.00;99.90
17425;DHT22;8830;50.978;5.058;2023-02-01T04:54:35;5.80;99.90
17425;DHT22;8830;50.978;5.058;2023-02-01T04:57:03;5.70;99.90
17425;DHT22;8830;50.978;5.058;2023-02-01T04:59:31;5.70;99.90
17425;DHT22;8830;50.978;5.058;2023-02-01T05:01:58;5.70;99.90
17425;DHT22;8830;50.978;5.058;2023-02-01T05:04:26;5.70;99.90
17425;DHT22;8830;50.978;5.058;2023-02-01T05:06:53;5.70;99.90
17425;DHT22;8830;50.978;5.058;2023-02-01T05:09:20;5.70;99.90
17425;DHT22;8830;50.978;5.058;2023-02-01T05:11:50;5.70;99.90
17425;DHT22;8830;50.978;5.058;2023-02-01T05:14:37;5.70;99.90
17425;DHT22;8830;50.978;5.058;2023-02-01T05:17:05;5.70;99.90
17425;DHT22;8830;50.978;5.058;2023-02-01T05:19:32;5.80;99.90
17425;DHT22;8830;50.978;5.058;2023-02-01T05:22:02;6.00;99.90
17425;DHT22;8830;50.978;5.058;2023-02-01T05:24:31;5.60;99.90
17425;DHT22;8830;50.978;5.058;2023-02-01T05:26:59;5.60;99.90
17425;DHT22;8830;50.978;5.058;2023-02-01T05:29:26;5.60;99.90
17425;DHT22;8830;50.978;5.058;2023-02-01T05:31:54;5.50;99.90
17425;DHT22;8830;50.978;5.058;2023-02-01T05:34:21;5.60;99.90
17425;DHT22;8830;50.978;5.058;2023-02-01T05:36:48;5.60;99.90
17425;DHT22;8830;50.978;5.058;2023-02-01T05:39:15;5.60;99.90
17425;DHT22;8830;50.978;5.058;2023-02-01T05:41:42;5.60;99.90
17425;DHT22;8830;50.978;5.058;2023-02-01T05:44:15;5.60;99.90
17425;DHT22;8830;50.978;5.058;2023-02-01T05:46:42;5.60;99.90
17425;DHT22;8830;50.978;5.058;2023-02-01T05:49:11;5.60;99.90
17425;DHT22;8830;50.978;5.058;2023-02-01T05:51:38;5.60;99.90
17425;DHT22;8830;50.978;5.058;2023-02-01T05:54:05;5.50;99.90
17425;DHT22;8830;50.978;5.058;2023-02-01T05:56:32;5.50;99.90
17425;DHT22;8830;50.978;5.058;2023-02-01T05:58:59;6.60;99.90
17425;DHT22;8830;50.978;5.058;2023-02-01T06:01:29;5.60;99.90
17425;DHT22;8830;50.978;5.058;2023-02-01T06:03:57;5.50;99.90
17425;DHT22;8830;50.978;5.058;2023-02-01T06:06:29;5.50;99.90
17425;DHT22;8830;50.978;5.058;2023-02-01T06:08:57;5.40;99.90
17425;DHT22;8830;50.978;5.058;2023-02-01T06:11:25;5.40;99.90
17425;DHT22;8830;50.978;5.058;2023-02-01T06:13:52;5.40;99.90
17425;DHT22;8830;50.978;5.058;2023-02-01T06:16:19;5.40;99.90
17425;DHT22;8830;50.978;5.058;2023-02-01T06:18:46;5.30;99.90
17425;DHT22;8830;50.978;5.058;2023-02-01T06:21:13;5.30;99.90
17425;DHT22;8830;50.978;5.058;2023-02-01T06:23:54;5.30;99.90
17425;DHT22;8830;50.978;5.058;2023-02-01T06:26:23;5.30;99.90
17425;DHT22;8830;50.978;5.058;2023-02-01T06:28:50;5.40;99.90
17425;DHT22;8830;50.978;5.058;2023-02-01T06:31:17;5.40;99.90
17425;DHT22;8830;50.978;5.058;2023-02-01T06:33:44;5.40;99.90
17425;DHT22;8830;50.978;5.058;2023-02-01T06:36:13;5.40;99.90
17425;DHT22;8830;50.978;5.058;2023-02-01T06:38:41;5.40;99.90
17425;DHT22;8830;50.978;5.058;2023-02-01T06:41:10;5.40;99.90
17425;DHT22;8830;50.978;5.058;2023-02-01T06:43:37;4.40;99.90
17425;DHT22;8830;50.978;5.058;2023-02-01T06:46:06;5.40;99.90
17425;DHT22;8830;50.978;5.058;2023-02-01T06:48:33;5.30;99.90
17425;DHT22;8830;50.978;5.058;2023-02-01T06:51:01;5.50;99.90
17425;DHT22;8830;50.978;5.058;2023-02-01T06:53:29;8.20;99.90
17425;DHT22;8830;50.978;5.058;2023-02-01T06:55:59;5.40;99.90
17425;DHT22;8830;50.978;5.058;2023-02-01T06:58:32;5.40;99.90
17425;DHT22;8830;50.978;5.058;2023-02-01T07:01:05;5.40;99.90
17425;DHT22;8830;50.978;5.058;2023-02-01T07:03:32;5.40;99.90
17425;DHT22;8830;50.978;5.058;2023-02-01T07:05:59;5.30;99.90
17425;DHT22;8830;50.978;5.058;2023-02-01T07:08:27;5.40;99.90
17425;DHT22;8830;50.978;5.058;2023-02-01T07:10:54;5.40;99.90
17425;DHT22;8830;50.978;5.058;2023-02-01T07:13:22;5.30;99.90
17425;DHT22;8830;50.978;5.058;2023-02-01T07:15:51;5.30;99.90
17425;DHT22;8830;50.978;5.058;2023-02-01T07:18:18;5.30;99.90
17425;DHT22;8830;50.978;5.058;2023-02-01T07:20:50;5.30;99.90
17425;DHT22;8830;50.978;5.058;2023-02-01T07:23:17;5.30;99.90
17425;DHT22;8830;50.978;5.058;2023-02-01T07:25:44;5.40;99.90
17425;DHT22;8830;50.978;5.058;2023-02-01T07:28:12;5.40;99.90
17425;DHT22;8830;50.978;5.058;2023-02-01T07:30:43;5.40;99.90
17425;DHT22;8830;50.978;5.058;2023-02-01T07:33:18;5.40;99.90
17425;DHT22;8830;50.978;5.058;2023-02-01T07:35:46;5.50;99.90
17425;DHT22;8830;50.978;5.058;2023-02-01T07:38:13;5.50;99.90
17425;DHT22;8830;50.978;5.058;2023-02-01T07:40:40;5.70;99.90
17425;DHT22;8830;50.978;5.058;2023-02-01T07:43:07;5.60;99.90
17425;DHT22;8830;50.978;5.058;2023-02-01T07:45:35;5.60;99.90
17425;DHT22;8830;50.978;5.058;2023-02-01T07:48:03;5.60;99.90
17425;DHT22;8830;50.978;5.058;2023-02-01T07:50:31;5.70;99.90
17425;DHT22;8830;50.978;5.058;2023-02-01T07:52:59;5.70;99.90
17425;DHT22;8830;50.978;5.058;2023-02-01T07:55:27;5.80;99.90
17425;DHT22;8830;50.978;5.058;2023-02-01T07:57:57;8.20;99.90
17425;DHT22;8830;50.978;5.058;2023-02-01T08:00:25;5.90;99.90
17425;DHT22;8830;50.978;5.058;2023-02-01T08:03:10;5.90;99.90
17425;DHT22;8830;50.978;5.058;2023-02-01T08:05:38;6.00;99.90
17425;DHT22;8830;50.978;5.058;2023-02-01T08:08:06;6.10;99.90
17425;DHT22;8830;50.978;5.058;2023-02-01T08:10:33;6.40;99.90
17425;DHT22;8830;50.978;5.058;2023-02-01T08:13:01;6.50;99.90
17425;DHT22;8830;50.978;5.058;2023-02-01T08:15:29;6.80;99.90
17425;DHT22;8830;50.978;5.058;2023-02-01T08:17:57;9.30;99.90
17425;DHT22;8830;50.978;5.058;2023-02-01T08:20:25;7.20;99.90
17425;DHT22;8830;50.978;5.058;2023-02-01T08:22:54;7.50;99.90
17425;DHT22;8830;50.978;5.058;2023-02-01T08:25:22;9.60;99.90
17425;DHT22;8830;50.978;5.058;2023-02-01T08:27:50;8.30;99.90
17425;DHT22;8830;50.978;5.058;2023-02-01T08:30:18;7.40;99.90
17425;DHT22;8830;50.978;5.058;2023-02-01T08:32:48;7.40;99.90
17425;DHT22;8830;50.978;5.058;2023-02-01T08:35:15;7.30;99.90
17425;DHT22;8830;50.978;5.058;2023-02-01T08:37:46;7.20;99.90
17425;DHT22;8830;50.978;5.058;2023-02-01T08:40:16;7.30;99.90
17425;DHT22;8830;50.978;5.058;2023-02-01T08:42:43;7.30;99.90
17425;DHT22;8830;50.978;5.058;2023-02-01T08:45:23;7.30;99.90
17425;DHT22;8830;50.978;5.058;2023-02-01T08:47:50;10.10;99.90
17425;DHT22;8830;50.978;5.058;2023-02-01T08:50:18;8.80;99.90
17425;DHT22;8830;50.978;5.058;2023-02-01T08:52:46;7.30;99.90
17425;DHT22;8830;50.978;5.058;2023-02-01T08:55:15;7.30;99.90
17425;DHT22;8830;50.978;5.058;2023-02-01T08:57:42;7.30;99.90
17425;DHT22;8830;50.978;5.058;2023-02-01T09:00:12;7.30;99.90
17425;DHT22;8830;50.978;5.058;2023-02-01T09:02:40;7.40;99.90
17425;DHT22;8830;50.978;5.058;2023-02-01T09:05:08;7.50;99.90
17425;DHT22;8830;50.978;5.058;2023-02-01T09:07:36;7.50;99.90
17425;DHT22;8830;50.978;5.058;2023-02-01T09:10:04;7.60;99.90
17425;DHT22;8830;50.978;5.058;2023-02-01T09:12:35;7.60;99.90
17425;DHT22;8830;50.978;5.058;2023-02-01T09:15:04;7.60;99.90
17425;DHT22;8830;50.978;5.058;2023-02-01T09:17:32;7.60;99.90
17425;DHT22;8830;50.978;5.058;2023-02-01T09:19:59;9.80;99.90
17425;DHT22;8830;50.978;5.058;2023-02-01T09:22:26;7.80;99.90
17425;DHT22;8830;50.978;5.058;2023-02-01T09:24:55;9.50;99.90
17425;DHT22;8830;50.978;5.058;2023-02-01T09:27:25;7.70;99.90
17425;DHT22;8830;50.978;5.058;2023-02-01T09:29:53;7.80;99.90
17425;DHT22;8830;50.978;5.058;2023-02-01T09:32:21;9.10;99.90
17425;DHT22;8830;50.978;5.058;2023-02-01T09:34:48;8.10;99.90
17425;DHT22;8830;50.978;5.058;2023-02-01T09:37:15;7.80;99.90
17425;DHT22;8830;50.978;5.058;2023-02-01T09:39:42;7.70;99.90
17425;DHT22;8830;50.978;5.058;2023-02-01T09:42:20;7.60;99.90
17425;DHT22;8830;50.978;5.058;2023-02-01T09:45:14;7.60;99.90
17425;DHT22;8830;50.978;5.058;2023-02-01T09:47:54;7.70;99.90
17425;DHT22;8830;50.978;5.058;2023-02-01T09:50:31;10.40;99.90
17425;DHT22;8830;50.978;5.058;2023-02-01T09:53:03;7.70;99.90
17425;DHT22;8830;50.978;5.058;2023-02-01T09:55:38;7.80;99.90
17425;DHT22;8830;50.978;5.058;2023-02-01T09:58:13;7.80;99.90
17425;DHT22;8830;50.978;5.058;2023-02-01T10:00:51;10.20;99.90
17425;DHT22;8830;50.978;5.058;2023-02-01T10:03:18;7.90;99.90
17425;DHT22;8830;50.978;5.058;2023-02-01T10:06:06;8.00;99.90
17425;DHT22;8830;50.978;5.058;2023-02-01T10:08:55;7.90;99.90
17425;DHT22;8830;50.978;5.058;2023-02-01T10:11:35;7.90;99.90
17425;DHT22;8830;50.978;5.058;2023-02-01T10:14:27;9.40;99.90
17425;DHT22;8830;50.978;5.058;2023-02-01T10:17:03;8.70;99.90
17425;DHT22;8830;50.978;5.058;2023-02-01T10:19:41;8.10;99.90
17425;DHT22;8830;50.978;5.058;2023-02-01T10:22:20;8.20;99.90
17425;DHT22;8830;50.978;5.058;2023-02-01T10:24:52;8.30;99.90
17425;DHT22;8830;50.978;5.058;2023-02-01T10:27:25;8.30;99.90
17425;DHT22;8830;50.978;5.058;2023-02-01T10:29:59;8.30;99.90
17425;DHT22;8830;50.978;5.058;2023-02-01T10:32:32;8.40;99.90
17425;DHT22;8830;50.978;5.058;2023-02-01T10:35:05;8.50;99.90
17425;DHT22;8830;50.978;5.058;2023-02-01T10:37:35;8.60;99.90
17425;DHT22;8830;50.978;5.058;2023-02-01T10:40:10;8.70;99.90
17425;DHT22;8830;50.978;5.058;2023-02-01T10:42:39;8.70;99.90
17425;DHT22;8830;50.978;5.058;2023-02-01T10:45:13;9.60;99.90
17425;DHT22;8830;50.978;5.058;2023-02-01T10:47:42;8.90;99.90
17425;DHT22;8830;50.978;5.058;2023-02-01T10:50:17;9.00;99.90
17425;DHT22;8830;50.978;5.058;2023-02-01T10:52:51;9.00;99.90
17425;DHT22;8830;50.978;5.058;2023-02-01T10:55:38;10.90;99.90
17425;DHT22;8830;50.978;5.058;2023-02-01T10:58:07;6.70;99.90
17425;DHT22;8830;50.978;5.058;2023-02-01T11:00:46;11.80;99.90
17425;DHT22;8830;50.978;5.058;2023-02-01T11:03:42;9.90;99.90
17425;DHT22;8830;50.978;5.058;2023-02-01T11:06:14;9.30;99.90
17425;DHT22;8830;50.978;5.058;2023-02-01T11:08:46;9.30;99.90
17425;DHT22;8830;50.978;5.058;2023-02-01T11:11:15;9.30;99.90
17425;DHT22;8830;50.978;5.058;2023-02-01T11:13:42;9.40;99.90
17425;DHT22;8830;50.978;5.058;2023-02-01T11:16:13;11.10;99.90
17425;DHT22;8830;50.978;5.058;2023-02-01T11:18:42;9.50;99.90
17425;DHT22;8830;50.978;5.058;2023-02-01T11:21:10;9.60;99.90
17425;DHT22;8830;50.978;5.058;2023-02-01T11:23:43;9.80;99.90
17425;DHT22;8830;50.978;5.058;2023-02-01T11:26:19;9.70;99.90
17425;DHT22;8830;50.978;5.058;2023-02-01T11:28:53;9.80;99.90
17425;DHT22;8830;50.978;5.058;2023-02-01T11:31:22;9.90;99.90
17425;DHT22;8830;50.978;5.058;2023-02-01T11:33:55;9.90;99.90
17425;DHT22;8830;50.978;5.058;2023-02-01T11:36:26;10.10;99.90
17425;DHT22;8830;50.978;5.058;2023-02-01T11:39:07;10.00;99.90
17425;DHT22;8830;50.978;5.058;2023-02-01T11:41:41;10.10;99.90
17425;DHT22;8830;50.978;5.058;2023-02-01T11:44:20;10.10;99.90
17425;DHT22;8830;50.978;5.058;2023-02-01T11:46:47;10.20;99.90
17425;DHT22;8830;50.978;5.058;2023-02-01T11:49:23;10.90;99.90
17425;DHT22;8830;50.978;5.058;2023-02-01T11:51:59;10.60;99.90
17425;DHT22;8830;50.978;5.058;2023-02-01T11:54:48;12.30;99.90
17425;DHT22;8830;50.978;5.058;2023-02-01T11:57:37;10.60;99.90
17425;DHT22;8830;50.978;5.058;2023-02-01T12:00:23;10.50;99.90
17425;DHT22;8830;50.978;5.058;2023-02-01T12:03:11;10.60;99.90
17425;DHT22;8830;50.978;5.058;2023-02-01T12:05:52;10.50;99.90
17425;DHT22;8830;50.978;5.058;2023-02-01T12:08:34;10.50;99.90
17425;DHT22;8830;50.978;5.058;2023-02-01T12:11:29;10.70;99.90
17425;DHT22;8830;50.978;5.058;2023-02-01T12:14:10;10.70;99.90
17425;DHT22;8830;50.978;5.058;2023-02-01T12:16:45;11.70;99.90
17425;DHT22;8830;50.978;5.058;2023-02-01T12:19:27;12.10;99.90
17425;DHT22;8830;50.978;5.058;2023-02-01T12:22:05;11.30;99.90
17425;DHT22;8830;50.978;5.058;2023-02-01T12:25:03;11.00;99.90
17425;DHT22;8830;50.978;5.058;2023-02-01T12:27:57;10.90;99.90
17425;DHT22;8830;50.978;5.058;2023-02-01T12:31:13;9.50;99.90
17425;DHT22;8830;50.978;5.058;2023-02-01T12:33:51;10.50;99.90
17425;DHT22;8830;50.978;5.058;2023-02-01T12:36:25;10.30;99.90
17425;DHT22;8830;50.978;5.058;2023-02-01T12:39:05;10.30;99.90
17425;DHT22;8830;50.978;5.058;2023-02-01T12:41:52;10.30;99.90
17425;DHT22;8830;50.978;5.058;2023-02-01T12:44:29;10.60;99.90
17425;DHT22;8830;50.978;5.058;2023-02-01T12:47:05;10.20;99.90
17425;DHT22;8830;50.978;5.058;2023-02-01T12:49:45;10.20;99.90
17425;DHT22;8830;50.978;5.058;2023-02-01T12:52:16;10.20;99.90
17425;DHT22;8830;50.978;5.058;2023-02-01T12:54:53;10.50;99.90
17425;DHT22;8830;50.978;5.058;2023-02-01T12:57:26;10.10;99.90
17425;DHT22;8830;50.978;5.058;2023-02-01T13:00:01;10.10;99.90
17425;DHT22;8830;50.978;5.058;2023-02-01T13:02:38;10.20;99.90
17425;DHT22;8830;50.978;5.058;2023-02-01T13:05:14;10.10;99.90
17425;DHT22;8830;50.978;5.058;2023-02-01T13:07:47;9.90;99.90
17425;DHT22;8830;50.978;5.058;2023-02-01T13:10:21;9.90;99.90
17425;DHT22;8830;50.978;5.058;2023-02-01T13:12:54;10.00;99.90
17425;DHT22;8830;50.978;5.058;2023-02-01T13:15:26;10.80;99.90
17425;DHT22;8830;50.978;5.058;2023-02-01T13:18:00;9.90;99.90
17425;DHT22;8830;50.978;5.058;2023-02-01T13:20:30;10.00;99.90
17425;DHT22;8830;50.978;5.058;2023-02-01T13:23:02;10.30;99.90
17425;DHT22;8830;50.978;5.058;2023-02-01T13:25:37;10.70;99.90
17425;DHT22;8830;50.978;5.058;2023-02-01T13:28:11;10.20;99.90
17425;DHT22;8830;50.978;5.058;2023-02-01T13:30:54;10.10;99.90
17425;DHT22;8830;50.978;5.058;2023-02-01T13:33:35;10.10;99.90
17425;DHT22;8830;50.978;5.058;2023-02-01T13:36:38;10.10;99.90
17425;DHT22;8830;50.978;5.058;2023-02-01T13:39:38;10.10;99.90
17425;DHT22;8830;50.978;5.058;2023-02-01T13:42:16;9.10;99.90
17425;DHT22;8830;50.978;5.058;2023-02-01T13:44:50;10.30;99.90
17425;DHT22;8830;50.978;5.058;2023-02-01T13:47:28;10.00;99.90
17425;DHT22;8830;50.978;5.058;2023-02-01T13:49:59;10.00;99.90
17425;DHT22;8830;50.978;5.058;2023-02-01T13:52:37;10.10;99.90
17425;DHT22;8830;50.978;5.058;2023-02-01T13:55:22;10.30;99.90
17425;DHT22;8830;50.978;5.058;2023-02-01T13:58:04;10.10;99.90
17425;DHT22;8830;50.978;5.058;2023-02-01T14:00:33;10.00;99.90
17425;DHT22;8830;50.978;5.058;2023-02-01T14:03:19;11.90;99.90
17425;DHT22;8830;50.978;5.058;2023-02-01T14:09:32;10.00;99.90
17425;DHT22;8830;50.978;5.058;2023-02-01T14:15:19;9.90;99.90
17425;DHT22;8830;50.978;5.058;2023-02-01T14:17:49;10.10;99.90
17425;DHT22;8830;50.978;5.058;2023-02-01T14:20:44;12.20;99.90
17425;DHT22;8830;50.978;5.058;2023-02-01T14:23:27;9.90;99.90
17425;DHT22;8830;50.978;5.058;2023-02-01T14:26:10;9.90;99.90
17425;DHT22;8830;50.978;5.058;2023-02-01T14:28:42;9.90;99.90
17425;DHT22;8830;50.978;5.058;2023-02-01T14:34:13;9.90;99.90
17425;DHT22;8830;50.978;5.058;2023-02-01T14:36:47;10.10;99.90
17425;DHT22;8830;50.978;5.058;2023-02-01T14:39:31;9.90;99.90
17425;DHT22;8830;50.978;5.058;2023-02-01T14:42:04;9.90;99.90
17425;DHT22;8830;50.978;5.058;2023-02-01T14:44:36;10.20;99.90
17425;DHT22;8830;50.978;5.058;2023-02-01T14:47:25;12.90;99.90
17425;DHT22;8830;50.978;5.058;2023-02-01T14:49:58;9.90;99.90
17425;DHT22;8830;50.978;5.058;2023-02-01T14:52:32;9.80;99.90
17425;DHT22;8830;50.978;5.058;2023-02-01T14:55:05;13.30;99.90
17425;DHT22;8830;50.978;5.058;2023-02-01T14:57:36;9.90;99.90
17425;DHT22;8830;50.978;5.058;2023-02-01T15:00:18;9.80;99.90
17425;DHT22;8830;50.978;5.058;2023-02-01T15:02:50;9.80;99.90
17425;DHT22;8830;50.978;5.058;2023-02-01T15:05:25;9.80;99.90
17425;DHT22;8830;50.978;5.058;2023-02-01T15:07:58;10.00;99.90
17425;DHT22;8830;50.978;5.058;2023-02-01T15:10:28;9.80;99.90
17425;DHT22;8830;50.978;5.058;2023-02-01T15:12:59;9.90;99.90
17425;DHT22;8830;50.978;5.058;2023-02-01T15:15:26;9.80;99.90
17425;DHT22;8830;50.978;5.058;2023-02-01T15:17:57;9.70;99.90
17425;DHT22;8830;50.978;5.058;2023-02-01T15:20:27;9.80;99.90
17425;DHT22;8830;50.978;5.058;2023-02-01T15:22:57;9.70;99.90
17425;DHT22;8830;50.978;5.058;2023-02-01T15:25:26;9.80;99.90
17425;DHT22;8830;50.978;5.058;2023-02-01T15:27:54;10.80;99.90
17425;DHT22;8830;50.978;5.058;2023-02-01T15:30:23;9.70;99.90
17425;DHT22;8830;50.978;5.058;2023-02-01T15:33:14;9.70;99.90
17425;DHT22;8830;50.978;5.058;2023-02-01T15:35:43;9.70;99.90
17425;DHT22;8830;50.978;5.058;2023-02-01T15:38:34;9.70;99.90
17425;DHT22;8830;50.978;5.058;2023-02-01T15:41:08;9.70;99.90
17425;DHT22;8830;50.978;5.058;2023-02-01T15:43:38;9.70;99.90
17425;DHT22;8830;50.978;5.058;2023-02-01T15:46:09;9.70;99.90
17425;DHT22;8830;50.978;5.058;2023-02-01T15:48:42;9.60;99.90
17425;DHT22;8830;50.978;5.058;2023-02-01T15:51:15;9.90;99.90
17425;DHT22;8830;50.978;5.058;2023-02-01T15:53:50;9.50;99.90
17425;DHT22;8830;50.978;5.058;2023-02-01T15:56:27;9.60;99.90
17425;DHT22;8830;50.978;5.058;2023-02-01T15:58:59;9.50;99.90
17425;DHT22;8830;50.978;5.058;2023-02-01T16:01:29;9.50;99.90
17425;DHT22;8830;50.978;5.058;2023-02-01T16:04:15;10.20;99.90
17425;DHT22;8830;50.978;5.058;2023-02-01T16:06:49;9.50;99.90
17425;DHT22;8830;50.978;5.058;2023-02-01T16:09:18;9.50;99.90
17425;DHT22;8830;50.978;5.058;2023-02-01T16:12:01;9.30;99.90
17425;DHT22;8830;50.978;5.058;2023-02-01T16:14:29;9.40;99.90
17425;DHT22;8830;50.978;5.058;2023-02-01T16:16:58;9.50;99.90
17425;DHT22;8830;50.978;5.058;2023-02-01T16:19:26;9.40;99.90
17425;DHT22;8830;50.978;5.058;2023-02-01T16:21:54;9.40;99.90
17425;DHT22;8830;50.978;5.058;2023-02-01T16:24:21;9.40;99.90
17425;DHT22;8830;50.978;5.058;2023-02-01T16:26:51;9.40;99.90
17425;DHT22;8830;50.978;5.058;2023-02-01T16:31:48;9.30;99.90
17425;DHT22;8830;50.978;5.058;2023-02-01T16:34:17;9.40;99.90
17425;DHT22;8830;50.978;5.058;2023-02-01T16:36:50;9.40;99.90
17425;DHT22;8830;50.978;5.058;2023-02-01T16:39:19;9.40;99.90
17425;DHT22;8830;50.978;5.058;2023-02-01T16:41:47;9.30;99.90
17425;DHT22;8830;50.978;5.058;2023-02-01T16:44:14;9.40;99.90
17425;DHT22;8830;50.978;5.058;2023-02-01T16:46:43;9.30;99.90
17425;DHT22;8830;50.978;5.058;2023-02-01T16:49:18;9.30;99.90
17425;DHT22;8830;50.978;5.058;2023-02-01T16:51:48;9.30;99.90